sensor_id;sensor_type;location;lat;lon;timestamp;P1;durP1;ratioP1;P2;durP2;ratioP2
68593;SDS011;55563;52.416;13.548;2023-02-21T00:02:33;3.22;;;2.63;;
68593;SDS011;55563;52.416;13.548;2023-02-21T00:07:14;2.72;;;2.00;;
68593;SDS011;55563;52.416;13.548;2023-02-21T00:09:37;3.25;;;2.40;;
68593;SDS011;55563;52.416;13.548;2023-02-21T00:11:58;3.67;;;2.70;;
68593;SDS011;55563;52.416;13.548;2023-02-21T00:16:39;3.25;;;2.55;;
68593;SDS011;55563;52.416;13.548;2023-02-21T00:19:00;2.67;;;2.30;;
68593;SDS011;55563;52.416;13.548;2023-02-21T00:21:20;2.05;;;1.52;;
68593;SDS011;55563;52.416;13.548;2023-02-21T00:23:41;3.63;;;2.75;;
68593;SDS011;55563;52.416;13.548;2023-02-21T00:26:02;4.13;;;2.25;;
68593;SDS011;55563;52.416;13.548;2023-02-21T00:28:23;3.42;;;2.75;;
68593;SDS011;55563;52.416;13.548;2023-02-21T00:30:43;3.17;;;2.80;;
68593;SDS011;55563;52.416;13.548;2023-02-21T00:33:04;3.45;;;2.10;;
68593;SDS011;55563;52.416;13.548;2023-02-21T00:35:26;3.60;;;2.65;;
68593;SDS011;55563;52.416;13.548;2023-02-21T00:37:49;2.80;;;1.92;;
68593;SDS011;55563;52.416;13.548;2023-02-21T00:40:11;3.35;;;2.60;;
68593;SDS011;55563;52.416;13.548;2023-02-21T00:42:32;4.07;;;2.90;;
68593;SDS011;55563;52.416;13.548;2023-02-21T00:47:13;3.60;;;2.50;;
68593;SDS011;55563;52.416;13.548;2023-02-21T00:51:54;3.30;;;2.50;;
68593;SDS011;55563;52.416;13.548;2023-02-21T00:56:35;3.60;;;2.63;;
68593;SDS011;55563;52.416;13.548;2023-02-21T00:58:56;3.15;;;2.58;;
68593;SDS011;55563;52.416;13.548;2023-02-21T01:03:37;3.13;;;2.50;;
68593;SDS011;55563;52.416;13.548;2023-02-21T01:08:19;3.97;;;2.42;;
68593;SDS011;55563;52.416;13.548;2023-02-21T01:13:01;3.10;;;2.20;;
68593;SDS011;55563;52.416;13.548;2023-02-21T01:15:24;3.65;;;1.98;;
68593;SDS011;55563;52.416;13.548;2023-02-21T01:17:45;5.25;;;3.33;;
68593;SDS011;55563;52.416;13.548;2023-02-21T01:22:27;3.45;;;2.20;;
68593;SDS011;55563;52.416;13.548;2023-02-21T01:24:49;4.07;;;2.78;;
68593;SDS011;55563;52.416;13.548;2023-02-21T01:27:10;4.55;;;3.00;;
68593;SDS011;55563;52.416;13.548;2023-02-21T01:29:31;4.70;;;2.95;;
68593;SDS011;55563;52.416;13.548;2023-02-21T01:34:13;3.50;;;2.28;;
68593;SDS011;55563;52.416;13.548;2023-02-21T01:36:33;3.92;;;2.58;;
68593;SDS011;55563;52.416;13.548;2023-02-21T01:38:54;4.03;;;3.20;;
68593;SDS011;55563;52.416;13.548;2023-02-21T01:41:15;3.45;;;2.25;;
68593;SDS011;55563;52.416;13.548;2023-02-21T01:43:37;4.22;;;3.05;;
68593;SDS011;55563;52.416;13.548;2023-02-21T01:45:57;3.88;;;3.05;;
68593;SDS011;55563;52.416;13.548;2023-02-21T01:48:19;2.97;;;2.40;;
68593;SDS011;55563;52.416;13.548;2023-02-21T01:50:42;4.90;;;3.30;;
68593;SDS011;55563;52.416;13.548;2023-02-21T01:53:03;3.78;;;2.75;;
68593;SDS011;55563;52.416;13.548;2023-02-21T01:55:28;3.60;;;2.40;;
68593;SDS011;55563;52.416;13.548;2023-02-21T01:57:49;3.78;;;2.90;;
68593;SDS011;55563;52.416;13.548;2023-02-21T02:00:12;4.88;;;3.30;;
68593;SDS011;55563;52.416;13.548;2023-02-21T02:02:38;5.35;;;3.38;;
68593;SDS011;55563;52.416;13.548;2023-02-21T02:05:08;3.70;;;2.65;;
68593;SDS011;55563;52.416;13.548;2023-02-21T02:07:30;3.88;;;2.78;;
68593;SDS011;55563;52.416;13.548;2023-02-21T02:09:51;4.03;;;2.38;;
68593;SDS011;55563;52.416;13.548;2023-02-21T02:15:04;3.78;;;2.47;;
68593;SDS011;55563;52.416;13.548;2023-02-21T02:26:53;3.97;;;2.42;;
68593;SDS011;55563;52.416;13.548;2023-02-21T02:34:41;4.25;;;2.47;;
68593;SDS011;55563;52.416;13.548;2023-02-21T02:39:32;3.22;;;2.15;;
68593;SDS011;55563;52.416;13.548;2023-02-21T02:42:02;3.80;;;2.50;;
68593;SDS011;55563;52.416;13.548;2023-02-21T02:44:28;3.30;;;1.75;;
68593;SDS011;55563;52.416;13.548;2023-02-21T02:46:37;4.65;;;2.33;;
68593;SDS011;55563;52.416;13.548;2023-02-21T02:48:45;4.72;;;2.85;;
68593;SDS011;55563;52.416;13.548;2023-02-21T02:50:53;4.47;;;2.50;;
68593;SDS011;55563;52.416;13.548;2023-02-21T02:55:00;4.13;;;2.25;;
68593;SDS011;55563;52.416;13.548;2023-02-21T02:57:03;4.68;;;2.70;;
68593;SDS011;55563;52.416;13.548;2023-02-21T02:59:12;2.47;;;1.60;;
68593;SDS011;55563;52.416;13.548;2023-02-21T03:04:10;4.00;;;2.42;;
68593;SDS011;55563;52.416;13.548;2023-02-21T03:06:24;4.90;;;3.00;;
68593;SDS011;55563;52.416;13.548;2023-02-21T03:08:55;3.08;;;2.20;;
68593;SDS011;55563;52.416;13.548;2023-02-21T03:11:09;4.22;;;2.70;;
68593;SDS011;55563;52.416;13.548;2023-02-21T03:13:29;4.97;;;3.28;;
68593;SDS011;55563;52.416;13.548;2023-02-21T03:15:44;4.13;;;2.50;;
68593;SDS011;55563;52.416;13.548;2023-02-21T03:17:59;4.40;;;2.78;;
68593;SDS011;55563;52.416;13.548;2023-02-21T03:20:05;4.65;;;2.85;;
68593;SDS011;55563;52.416;13.548;2023-02-21T03:22:10;4.40;;;2.50;;
68593;SDS011;55563;52.416;13.548;2023-02-21T03:24:15;4.85;;;3.08;;
68593;SDS011;55563;52.416;13.548;2023-02-21T03:26:19;3.97;;;2.20;;
68593;SDS011;55563;52.416;13.548;2023-02-21T03:28:23;4.13;;;2.47;;
68593;SDS011;55563;52.416;13.548;2023-02-21T03:30:27;4.22;;;2.58;;
68593;SDS011;55563;52.416;13.548;2023-02-21T03:32:31;4.13;;;2.25;;
68593;SDS011;55563;52.416;13.548;2023-02-21T03:34:46;5.50;;;2.10;;
68593;SDS011;55563;52.416;13.548;2023-02-21T03:36:49;5.97;;;2.72;;
68593;SDS011;55563;52.416;13.548;2023-02-21T03:38:51;4.50;;;2.50;;
68593;SDS011;55563;52.416;13.548;2023-02-21T03:40:52;4.13;;;2.55;;
68593;SDS011;55563;52.416;13.548;2023-02-21T03:42:57;4.75;;;3.15;;
68593;SDS011;55563;52.416;13.548;2023-02-21T03:45:05;3.72;;;2.17;;
68593;SDS011;55563;52.416;13.548;2023-02-21T03:47:06;2.85;;;2.05;;
68593;SDS011;55563;52.416;13.548;2023-02-21T03:49:07;4.32;;;2.47;;
68593;SDS011;55563;52.416;13.548;2023-02-21T03:51:09;4.07;;;2.22;;
68593;SDS011;55563;52.416;13.548;2023-02-21T03:53:10;3.88;;;2.20;;
68593;SDS011;55563;52.416;13.548;2023-02-21T03:55:13;3.97;;;2.40;;
68593;SDS011;55563;52.416;13.548;2023-02-21T03:57:14;4.65;;;2.47;;
68593;SDS011;55563;52.416;13.548;2023-02-21T03:59:18;4.00;;;2.42;;
68593;SDS011;55563;52.416;13.548;2023-02-21T04:01:20;4.80;;;2.95;;
68593;SDS011;55563;52.416;13.548;2023-02-21T04:03:21;3.72;;;2.28;;
68593;SDS011;55563;52.416;13.548;2023-02-21T04:05:28;5.80;;;2.97;;
68593;SDS011;55563;52.416;13.548;2023-02-21T04:09:31;3.88;;;2.45;;
68593;SDS011;55563;52.416;13.548;2023-02-21T04:11:31;5.32;;;3.00;;
68593;SDS011;55563;52.416;13.548;2023-02-21T04:13:33;3.72;;;2.30;;
68593;SDS011;55563;52.416;13.548;2023-02-21T04:15:36;3.78;;;2.15;;
68593;SDS011;55563;52.416;13.548;2023-02-21T04:17:37;5.18;;;2.72;;
68593;SDS011;55563;52.416;13.548;2023-02-21T04:19:39;2.92;;;1.92;;
68593;SDS011;55563;52.416;13.548;2023-02-21T04:21:40;4.13;;;2.42;;
68593;SDS011;55563;52.416;13.548;2023-02-21T04:23:43;4.78;;;2.92;;
68593;SDS011;55563;52.416;13.548;2023-02-21T04:25:44;5.40;;;2.80;;
68593;SDS011;55563;52.416;13.548;2023-02-21T04:27:49;4.90;;;2.00;;
68593;SDS011;55563;52.416;13.548;2023-02-21T04:29:50;5.15;;;2.90;;
68593;SDS011;55563;52.416;13.548;2023-02-21T04:31:51;4.63;;;2.85;;
68593;SDS011;55563;52.416;13.548;2023-02-21T04:33:52;5.22;;;2.63;;
68593;SDS011;55563;52.416;13.548;2023-02-21T04:35:57;4.78;;;2.60;;
68593;SDS011;55563;52.416;13.548;2023-02-21T04:38:06;2.92;;;1.65;;
68593;SDS011;55563;52.416;13.548;2023-02-21T04:40:07;5.28;;;3.08;;
68593;SDS011;55563;52.416;13.548;2023-02-21T04:42:09;4.53;;;2.58;;
68593;SDS011;55563;52.416;13.548;2023-02-21T04:44:10;6.03;;;3.35;;
68593;SDS011;55563;52.416;13.548;2023-02-21T04:46:12;4.63;;;2.80;;
68593;SDS011;55563;52.416;13.548;2023-02-21T04:48:17;4.85;;;3.00;;
68593;SDS011;55563;52.416;13.548;2023-02-21T04:50:18;6.03;;;3.13;;
68593;SDS011;55563;52.416;13.548;2023-02-21T04:52:18;4.70;;;3.10;;
68593;SDS011;55563;52.416;13.548;2023-02-21T04:54:19;7.55;;;2.85;;
68593;SDS011;55563;52.416;13.548;2023-02-21T04:56:21;5.38;;;3.00;;
68593;SDS011;55563;52.416;13.548;2023-02-21T04:58:23;5.32;;;3.00;;
68593;SDS011;55563;52.416;13.548;2023-02-21T05:00:24;5.63;;;3.20;;
68593;SDS011;55563;52.416;13.548;2023-02-21T05:02:25;5.28;;;2.97;;
68593;SDS011;55563;52.416;13.548;2023-02-21T05:04:27;5.57;;;3.00;;
68593;SDS011;55563;52.416;13.548;2023-02-21T05:06:28;3.70;;;2.13;;
68593;SDS011;55563;52.416;13.548;2023-02-21T05:08:30;5.47;;;3.15;;
68593;SDS011;55563;52.416;13.548;2023-02-21T05:10:30;5.32;;;3.42;;
68593;SDS011;55563;52.416;13.548;2023-02-21T05:12:31;6.72;;;3.35;;
68593;SDS011;55563;52.416;13.548;2023-02-21T05:14:32;5.40;;;3.22;;
68593;SDS011;55563;52.416;13.548;2023-02-21T05:16:32;6.75;;;3.67;;
68593;SDS011;55563;52.416;13.548;2023-02-21T05:18:33;5.05;;;3.13;;
68593;SDS011;55563;52.416;13.548;2023-02-21T05:20:36;6.00;;;3.47;;
68593;SDS011;55563;52.416;13.548;2023-02-21T05:22:37;5.65;;;3.45;;
68593;SDS011;55563;52.416;13.548;2023-02-21T05:24:40;4.95;;;2.70;;
68593;SDS011;55563;52.416;13.548;2023-02-21T05:26:41;5.35;;;3.13;;
68593;SDS011;55563;52.416;13.548;2023-02-21T05:28:42;5.97;;;3.25;;
68593;SDS011;55563;52.416;13.548;2023-02-21T05:30:43;6.10;;;3.70;;
68593;SDS011;55563;52.416;13.548;2023-02-21T05:32:44;5.90;;;3.78;;
68593;SDS011;55563;52.416;13.548;2023-02-21T05:34:45;5.43;;;3.30;;
68593;SDS011;55563;52.416;13.548;2023-02-21T05:36:47;3.80;;;2.35;;
68593;SDS011;55563;52.416;13.548;2023-02-21T05:38:49;4.57;;;2.53;;
68593;SDS011;55563;52.416;13.548;2023-02-21T05:40:52;5.15;;;2.83;;
68593;SDS011;55563;52.416;13.548;2023-02-21T05:42:53;5.80;;;3.17;;
68593;SDS011;55563;52.416;13.548;2023-02-21T05:44:54;4.63;;;2.80;;
68593;SDS011;55563;52.416;13.548;2023-02-21T05:46:55;5.57;;;3.13;;
68593;SDS011;55563;52.416;13.548;2023-02-21T05:48:56;5.20;;;2.90;;
68593;SDS011;55563;52.416;13.548;2023-02-21T05:50:57;6.20;;;3.30;;
68593;SDS011;55563;52.416;13.548;2023-02-21T05:52:58;5.82;;;3.67;;
68593;SDS011;55563;52.416;13.548;2023-02-21T05:54:59;5.78;;;3.40;;
68593;SDS011;55563;52.416;13.548;2023-02-21T05:57:00;6.13;;;3.15;;
68593;SDS011;55563;52.416;13.548;2023-02-21T05:59:01;4.93;;;2.83;;
68593;SDS011;55563;52.416;13.548;2023-02-21T06:01:02;4.60;;;2.58;;
68593;SDS011;55563;52.416;13.548;2023-02-21T06:03:03;5.75;;;2.97;;
68593;SDS011;55563;52.416;13.548;2023-02-21T06:05:04;5.30;;;2.92;;
68593;SDS011;55563;52.416;13.548;2023-02-21T06:07:05;5.65;;;2.88;;
68593;SDS011;55563;52.416;13.548;2023-02-21T06:09:07;5.82;;;3.20;;
68593;SDS011;55563;52.416;13.548;2023-02-21T06:13:09;4.65;;;2.70;;
68593;SDS011;55563;52.416;13.548;2023-02-21T06:15:10;4.78;;;3.03;;
68593;SDS011;55563;52.416;13.548;2023-02-21T06:17:12;5.55;;;3.05;;
68593;SDS011;55563;52.416;13.548;2023-02-21T06:19:13;4.57;;;2.30;;
68593;SDS011;55563;52.416;13.548;2023-02-21T06:21:15;4.53;;;2.60;;
68593;SDS011;55563;52.416;13.548;2023-02-21T06:23:16;4.45;;;2.58;;
68593;SDS011;55563;52.416;13.548;2023-02-21T06:25:17;5.25;;;2.50;;
68593;SDS011;55563;52.416;13.548;2023-02-21T06:27:18;5.18;;;3.10;;
68593;SDS011;55563;52.416;13.548;2023-02-21T06:29:18;4.85;;;2.80;;
68593;SDS011;55563;52.416;13.548;2023-02-21T06:31:19;3.92;;;2.30;;
68593;SDS011;55563;52.416;13.548;2023-02-21T06:33:21;4.97;;;2.97;;
68593;SDS011;55563;52.416;13.548;2023-02-21T06:35:22;5.97;;;3.20;;
68593;SDS011;55563;52.416;13.548;2023-02-21T06:37:23;4.93;;;3.10;;
68593;SDS011;55563;52.416;13.548;2023-02-21T06:39:24;5.65;;;2.75;;
68593;SDS011;55563;52.416;13.548;2023-02-21T06:41:26;5.25;;;2.70;;
68593;SDS011;55563;52.416;13.548;2023-02-21T06:43:28;4.72;;;2.55;;
68593;SDS011;55563;52.416;13.548;2023-02-21T06:45:29;4.60;;;2.63;;
68593;SDS011;55563;52.416;13.548;2023-02-21T06:47:30;4.80;;;2.92;;
68593;SDS011;55563;52.416;13.548;2023-02-21T06:49:31;4.10;;;2.42;;
68593;SDS011;55563;52.416;13.548;2023-02-21T06:51:33;4.90;;;2.53;;
68593;SDS011;55563;52.416;13.548;2023-02-21T06:53:36;5.05;;;2.50;;
68593;SDS011;55563;52.416;13.548;2023-02-21T06:55:37;4.57;;;2.50;;
68593;SDS011;55563;52.416;13.548;2023-02-21T06:57:38;5.28;;;2.60;;
68593;SDS011;55563;52.416;13.548;2023-02-21T06:59:38;5.38;;;3.20;;
68593;SDS011;55563;52.416;13.548;2023-02-21T07:01:40;3.78;;;2.25;;
68593;SDS011;55563;52.416;13.548;2023-02-21T07:03:41;3.85;;;2.30;;
68593;SDS011;55563;52.416;13.548;2023-02-21T07:05:43;4.13;;;2.55;;
68593;SDS011;55563;52.416;13.548;2023-02-21T07:07:44;4.18;;;2.42;;
68593;SDS011;55563;52.416;13.548;2023-02-21T07:09:45;4.15;;;2.05;;
68593;SDS011;55563;52.416;13.548;2023-02-21T07:11:46;3.88;;;2.30;;
68593;SDS011;55563;52.416;13.548;2023-02-21T07:13:49;4.13;;;2.63;;
68593;SDS011;55563;52.416;13.548;2023-02-21T07:15:51;3.50;;;2.03;;
68593;SDS011;55563;52.416;13.548;2023-02-21T07:17:51;3.30;;;2.00;;
68593;SDS011;55563;52.416;13.548;2023-02-21T07:19:52;4.00;;;2.58;;
68593;SDS011;55563;52.416;13.548;2023-02-21T07:21:53;4.18;;;2.38;;
68593;SDS011;55563;52.416;13.548;2023-02-21T07:23:54;3.45;;;1.70;;
68593;SDS011;55563;52.416;13.548;2023-02-21T07:25:55;3.72;;;2.13;;
68593;SDS011;55563;52.416;13.548;2023-02-21T07:27:56;2.13;;;1.60;;
68593;SDS011;55563;52.416;13.548;2023-02-21T07:29:56;2.92;;;1.80;;
68593;SDS011;55563;52.416;13.548;2023-02-21T07:31:57;2.25;;;1.50;;
68593;SDS011;55563;52.416;13.548;2023-02-21T07:33:58;2.08;;;1.40;;
68593;SDS011;55563;52.416;13.548;2023-02-21T07:35:59;4.13;;;1.65;;
68593;SDS011;55563;52.416;13.548;2023-02-21T07:38:00;2.50;;;1.60;;
68593;SDS011;55563;52.416;13.548;2023-02-21T07:40:01;3.15;;;1.90;;
68593;SDS011;55563;52.416;13.548;2023-02-21T07:42:02;3.22;;;1.63;;
68593;SDS011;55563;52.416;13.548;2023-02-21T07:44:26;2.50;;;1.52;;
68593;SDS011;55563;52.416;13.548;2023-02-21T07:46:27;2.55;;;1.60;;
68593;SDS011;55563;52.416;13.548;2023-02-21T07:48:28;2.83;;;1.73;;
68593;SDS011;55563;52.416;13.548;2023-02-21T07:50:29;3.00;;;2.10;;
68593;SDS011;55563;52.416;13.548;2023-02-21T07:52:30;2.92;;;1.77;;
68593;SDS011;55563;52.416;13.548;2023-02-21T07:54:30;2.30;;;1.42;;
68593;SDS011;55563;52.416;13.548;2023-02-21T07:56:31;1.52;;;1.10;;
68593;SDS011;55563;52.416;13.548;2023-02-21T07:58:32;2.00;;;1.42;;
68593;SDS011;55563;52.416;13.548;2023-02-21T08:00:36;1.80;;;1.33;;
68593;SDS011;55563;52.416;13.548;2023-02-21T08:02:37;2.03;;;1.30;;
68593;SDS011;55563;52.416;13.548;2023-02-21T08:04:38;1.98;;;1.50;;
68593;SDS011;55563;52.416;13.548;2023-02-21T08:06:39;2.95;;;1.33;;
68593;SDS011;55563;52.416;13.548;2023-02-21T08:08:40;2.17;;;1.40;;
68593;SDS011;55563;52.416;13.548;2023-02-21T08:10:40;1.83;;;1.25;;
68593;SDS011;55563;52.416;13.548;2023-02-21T08:12:41;2.78;;;1.65;;
68593;SDS011;55563;52.416;13.548;2023-02-21T08:14:42;1.70;;;1.17;;
68593;SDS011;55563;52.416;13.548;2023-02-21T08:16:42;3.15;;;1.45;;
68593;SDS011;55563;52.416;13.548;2023-02-21T08:18:45;1.60;;;1.13;;
68593;SDS011;55563;52.416;13.548;2023-02-21T08:20:46;2.42;;;1.42;;
68593;SDS011;55563;52.416;13.548;2023-02-21T08:22:47;2.25;;;1.48;;
68593;SDS011;55563;52.416;13.548;2023-02-21T08:24:48;2.35;;;1.45;;
68593;SDS011;55563;52.416;13.548;2023-02-21T08:26:50;2.35;;;1.50;;
68593;SDS011;55563;52.416;13.548;2023-02-21T08:28:50;2.65;;;1.30;;
68593;SDS011;55563;52.416;13.548;2023-02-21T08:30:51;1.30;;;1.10;;
68593;SDS011;55563;52.416;13.548;2023-02-21T08:32:53;1.65;;;1.00;;
68593;SDS011;55563;52.416;13.548;2023-02-21T08:34:54;2.63;;;1.30;;
68593;SDS011;55563;52.416;13.548;2023-02-21T08:36:54;1.50;;;1.13;;
68593;SDS011;55563;52.416;13.548;2023-02-21T08:38:55;2.38;;;0.90;;
68593;SDS011;55563;52.416;13.548;2023-02-21T08:40:56;0.68;;;0.68;;
68593;SDS011;55563;52.416;13.548;2023-02-21T08:43:05;1.23;;;1.10;;
68593;SDS011;55563;52.416;13.548;2023-02-21T08:45:07;3.45;;;1.60;;
68593;SDS011;55563;52.416;13.548;2023-02-21T08:47:15;1.23;;;0.95;;
68593;SDS011;55563;52.416;13.548;2023-02-21T08:49:16;1.02;;;0.70;;
68593;SDS011;55563;52.416;13.548;2023-02-21T08:51:17;1.10;;;1.00;;
68593;SDS011;55563;52.416;13.548;2023-02-21T08:53:24;0.75;;;0.70;;
68593;SDS011;55563;52.416;13.548;2023-02-21T08:55:24;0.55;;;0.52;;
68593;SDS011;55563;52.416;13.548;2023-02-21T08:57:25;1.13;;;0.70;;
68593;SDS011;55563;52.416;13.548;2023-02-21T08:59:26;0.73;;;0.68;;
68593;SDS011;55563;52.416;13.548;2023-02-21T09:01:31;0.93;;;0.70;;
68593;SDS011;55563;52.416;13.548;2023-02-21T09:03:33;1.15;;;0.73;;
68593;SDS011;55563;52.416;13.548;2023-02-21T09:05:33;0.90;;;0.70;;
68593;SDS011;55563;52.416;13.548;2023-02-21T09:07:34;1.80;;;0.77;;
68593;SDS011;55563;52.416;13.548;2023-02-21T09:09:36;0.50;;;0.50;;
68593;SDS011;55563;52.416;13.548;2023-02-21T09:11:37;0.55;;;0.55;;
68593;SDS011;55563;52.416;13.548;2023-02-21T09:13:38;0.98;;;0.90;;
68593;SDS011;55563;52.416;13.548;2023-02-21T09:15:41;2.63;;;1.30;;
68593;SDS011;55563;52.416;13.548;2023-02-21T09:17:42;1.10;;;0.80;;
68593;SDS011;55563;52.416;13.548;2023-02-21T09:19:43;1.15;;;0.95;;
68593;SDS011;55563;52.416;13.548;2023-02-21T09:21:44;0.90;;;0.77;;
68593;SDS011;55563;52.416;13.548;2023-02-21T09:23:46;1.33;;;0.77;;
68593;SDS011;55563;52.416;13.548;2023-02-21T09:25:47;1.50;;;0.98;;
68593;SDS011;55563;52.416;13.548;2023-02-21T09:27:48;0.85;;;0.70;;
68593;SDS011;55563;52.416;13.548;2023-02-21T09:29:49;0.57;;;0.50;;
68593;SDS011;55563;52.416;13.548;2023-02-21T09:31:49;1.10;;;0.90;;
68593;SDS011;55563;52.416;13.548;2023-02-21T09:33:50;1.10;;;0.80;;
68593;SDS011;55563;52.416;13.548;2023-02-21T09:35:51;1.35;;;0.93;;
68593;SDS011;55563;52.416;13.548;2023-02-21T09:37:53;2.55;;;1.35;;
68593;SDS011;55563;52.416;13.548;2023-02-21T09:39:54;2.15;;;1.05;;
68593;SDS011;55563;52.416;13.548;2023-02-21T09:41:54;1.75;;;1.20;;
68593;SDS011;55563;52.416;13.548;2023-02-21T09:43:56;1.42;;;0.95;;
68593;SDS011;55563;52.416;13.548;2023-02-21T09:46:02;0.70;;;0.70;;
68593;SDS011;55563;52.416;13.548;2023-02-21T09:48:08;1.02;;;0.80;;
68593;SDS011;55563;52.416;13.548;2023-02-21T09:50:13;0.90;;;0.60;;
68593;SDS011;55563;52.416;13.548;2023-02-21T09:52:21;0.95;;;0.77;;
68593;SDS011;55563;52.416;13.548;2023-02-21T09:54:32;1.17;;;0.95;;
68593;SDS011;55563;52.416;13.548;2023-02-21T09:56:35;1.13;;;1.02;;
68593;SDS011;55563;52.416;13.548;2023-02-21T09:58:41;0.80;;;0.70;;
68593;SDS011;55563;52.416;13.548;2023-02-21T10:00:44;0.95;;;0.88;;
68593;SDS011;55563;52.416;13.548;2023-02-21T10:05:20;1.23;;;0.90;;
68593;SDS011;55563;52.416;13.548;2023-02-21T10:10:11;0.85;;;0.77;;
68593;SDS011;55563;52.416;13.548;2023-02-21T10:12:23;0.70;;;0.70;;
68593;SDS011;55563;52.416;13.548;2023-02-21T10:14:57;0.50;;;0.50;;
68593;SDS011;55563;52.416;13.548;2023-02-21T10:19:41;1.33;;;0.93;;
68593;SDS011;55563;52.416;13.548;2023-02-21T10:21:45;1.63;;;0.80;;
68593;SDS011;55563;52.416;13.548;2023-02-21T10:23:47;1.02;;;0.80;;
68593;SDS011;55563;52.416;13.548;2023-02-21T10:25:53;1.75;;;0.85;;
68593;SDS011;55563;52.416;13.548;2023-02-21T10:30:03;0.88;;;0.75;;
68593;SDS011;55563;52.416;13.548;2023-02-21T10:32:09;0.80;;;0.80;;
68593;SDS011;55563;52.416;13.548;2023-02-21T10:34:26;1.60;;;0.82;;
68593;SDS011;55563;52.416;13.548;2023-02-21T10:36:29;1.40;;;0.93;;
68593;SDS011;55563;52.416;13.548;2023-02-21T10:38:29;2.50;;;0.80;;
68593;SDS011;55563;52.416;13.548;2023-02-21T10:40:33;1.77;;;0.70;;
68593;SDS011;55563;52.416;13.548;2023-02-21T10:42:38;1.45;;;0.73;;
68593;SDS011;55563;52.416;13.548;2023-02-21T10:44:43;1.63;;;0.88;;
68593;SDS011;55563;52.416;13.548;2023-02-21T10:48:50;2.47;;;0.90;;
68593;SDS011;55563;52.416;13.548;2023-02-21T10:53:25;2.85;;;0.90;;
68593;SDS011;55563;52.416;13.548;2023-02-21T10:55:31;1.17;;;1.08;;
68593;SDS011;55563;52.416;13.548;2023-02-21T10:57:31;1.35;;;0.73;;
68593;SDS011;55563;52.416;13.548;2023-02-21T10:59:34;1.00;;;0.63;;
68593;SDS011;55563;52.416;13.548;2023-02-21T11:01:41;3.90;;;0.80;;
68593;SDS011;55563;52.416;13.548;2023-02-21T11:03:44;2.08;;;0.75;;
68593;SDS011;55563;52.416;13.548;2023-02-21T11:05:49;0.65;;;0.50;;
68593;SDS011;55563;52.416;13.548;2023-02-21T11:08:02;1.77;;;1.08;;
68593;SDS011;55563;52.416;13.548;2023-02-21T11:10:39;1.10;;;0.63;;
68593;SDS011;55563;52.416;13.548;2023-02-21T11:12:29;0.77;;;0.60;;
68593;SDS011;55563;52.416;13.548;2023-02-21T11:14:31;0.93;;;0.52;;
68593;SDS011;55563;52.416;13.548;2023-02-21T11:16:33;0.75;;;0.52;;
68593;SDS011;55563;52.416;13.548;2023-02-21T11:18:35;2.22;;;1.02;;
68593;SDS011;55563;52.416;13.548;2023-02-21T11:20:36;1.65;;;0.90;;
68593;SDS011;55563;52.416;13.548;2023-02-21T11:22:41;1.70;;;1.00;;
68593;SDS011;55563;52.416;13.548;2023-02-21T11:24:46;1.25;;;0.93;;
68593;SDS011;55563;52.416;13.548;2023-02-21T11:26:51;1.83;;;0.90;;
68593;SDS011;55563;52.416;13.548;2023-02-21T11:28:53;1.40;;;0.80;;
68593;SDS011;55563;52.416;13.548;2023-02-21T11:33:19;0.95;;;0.55;;
68593;SDS011;55563;52.416;13.548;2023-02-21T11:35:23;1.27;;;0.90;;
68593;SDS011;55563;52.416;13.548;2023-02-21T11:37:29;1.00;;;0.80;;
68593;SDS011;55563;52.416;13.548;2023-02-21T11:39:31;1.95;;;0.60;;
68593;SDS011;55563;52.416;13.548;2023-02-21T11:41:38;3.88;;;0.93;;
68593;SDS011;55563;52.416;13.548;2023-02-21T11:43:46;1.67;;;0.80;;
68593;SDS011;55563;52.416;13.548;2023-02-21T11:45:56;1.40;;;0.70;;
68593;SDS011;55563;52.416;13.548;2023-02-21T11:48:28;0.75;;;0.60;;
68593;SDS011;55563;52.416;13.548;2023-02-21T11:50:33;2.55;;;0.70;;
68593;SDS011;55563;52.416;13.548;2023-02-21T11:52:42;1.38;;;0.70;;
68593;SDS011;55563;52.416;13.548;2023-02-21T11:54:48;1.27;;;1.17;;
68593;SDS011;55563;52.416;13.548;2023-02-21T11:56:52;1.92;;;0.80;;
68593;SDS011;55563;52.416;13.548;2023-02-21T11:59:22;2.78;;;0.77;;
68593;SDS011;55563;52.416;13.548;2023-02-21T12:06:37;3.03;;;1.48;;
68593;SDS011;55563;52.416;13.548;2023-02-21T12:09:01;1.40;;;1.15;;
68593;SDS011;55563;52.416;13.548;2023-02-21T12:11:15;1.88;;;1.00;;
68593;SDS011;55563;52.416;13.548;2023-02-21T12:18:36;2.35;;;0.63;;
68593;SDS011;55563;52.416;13.548;2023-02-21T12:27:53;2.67;;;1.42;;
68593;SDS011;55563;52.416;13.548;2023-02-21T12:35:49;2.97;;;1.38;;
68593;SDS011;55563;52.416;13.548;2023-02-21T12:37:56;3.20;;;1.05;;
68593;SDS011;55563;52.416;13.548;2023-02-21T12:40:08;2.38;;;0.93;;
68593;SDS011;55563;52.416;13.548;2023-02-21T12:42:22;2.08;;;0.75;;
68593;SDS011;55563;52.416;13.548;2023-02-21T12:44:50;1.75;;;0.90;;
68593;SDS011;55563;52.416;13.548;2023-02-21T12:47:01;3.05;;;1.20;;
68593;SDS011;55563;52.416;13.548;2023-02-21T12:49:09;1.38;;;0.77;;
68593;SDS011;55563;52.416;13.548;2023-02-21T12:51:18;1.90;;;0.80;;
68593;SDS011;55563;52.416;13.548;2023-02-21T12:53:23;2.03;;;1.20;;
68593;SDS011;55563;52.416;13.548;2023-02-21T12:55:33;1.63;;;0.88;;
68593;SDS011;55563;52.416;13.548;2023-02-21T12:57:42;3.25;;;1.00;;
68593;SDS011;55563;52.416;13.548;2023-02-21T12:59:56;2.00;;;0.82;;
68593;SDS011;55563;52.416;13.548;2023-02-21T13:02:11;3.45;;;1.05;;
68593;SDS011;55563;52.416;13.548;2023-02-21T13:04:37;0.85;;;0.70;;
68593;SDS011;55563;52.416;13.548;2023-02-21T13:06:54;1.60;;;0.90;;
68593;SDS011;55563;52.416;13.548;2023-02-21T13:09:06;2.72;;;1.05;;
68593;SDS011;55563;52.416;13.548;2023-02-21T13:11:15;2.45;;;1.00;;
68593;SDS011;55563;52.416;13.548;2023-02-21T13:13:27;1.90;;;1.23;;
68593;SDS011;55563;52.416;13.548;2023-02-21T13:15:33;2.63;;;1.15;;
68593;SDS011;55563;52.416;13.548;2023-02-21T13:17:35;3.25;;;0.88;;
68593;SDS011;55563;52.416;13.548;2023-02-21T13:19:39;1.98;;;0.93;;
68593;SDS011;55563;52.416;13.548;2023-02-21T13:24:05;2.72;;;1.13;;
68593;SDS011;55563;52.416;13.548;2023-02-21T13:28:55;1.20;;;0.93;;
68593;SDS011;55563;52.416;13.548;2023-02-21T13:30:58;7.32;;;1.55;;
68593;SDS011;55563;52.416;13.548;2023-02-21T13:33:01;2.92;;;0.88;;
68593;SDS011;55563;52.416;13.548;2023-02-21T13:35:04;1.95;;;1.20;;
68593;SDS011;55563;52.416;13.548;2023-02-21T13:37:24;2.42;;;0.73;;
68593;SDS011;55563;52.416;13.548;2023-02-21T13:39:28;4.25;;;1.17;;
68593;SDS011;55563;52.416;13.548;2023-02-21T13:41:33;2.05;;;1.25;;
68593;SDS011;55563;52.416;13.548;2023-02-21T13:43:44;5.90;;;1.40;;
68593;SDS011;55563;52.416;13.548;2023-02-21T13:45:48;3.28;;;1.10;;
68593;SDS011;55563;52.416;13.548;2023-02-21T13:53:01;1.80;;;0.80;;
68593;SDS011;55563;52.416;13.548;2023-02-21T13:55:22;1.40;;;0.75;;
68593;SDS011;55563;52.416;13.548;2023-02-21T13:57:29;3.33;;;1.80;;
68593;SDS011;55563;52.416;13.548;2023-02-21T13:59:32;4.07;;;1.45;;
68593;SDS011;55563;52.416;13.548;2023-02-21T14:03:47;3.75;;;1.20;;
68593;SDS011;55563;52.416;13.548;2023-02-21T14:08:03;1.58;;;1.48;;
68593;SDS011;55563;52.416;13.548;2023-02-21T14:10:16;2.17;;;1.10;;
68593;SDS011;55563;52.416;13.548;2023-02-21T14:12:36;2.88;;;1.38;;
68593;SDS011;55563;52.416;13.548;2023-02-21T14:14:37;3.40;;;1.35;;
68593;SDS011;55563;52.416;13.548;2023-02-21T14:17:11;3.10;;;1.45;;
68593;SDS011;55563;52.416;13.548;2023-02-21T14:19:07;6.18;;;1.70;;
68593;SDS011;55563;52.416;13.548;2023-02-21T14:21:43;2.65;;;1.33;;